Hlavní strana
METAR-TAF:

METAR-TAF

Letiště :

Letiště Burgas

Burgas, Bulharsko

zeměpisná šířka: 42-29N, zeměpisná délka: 027-29E, výška: 16 m

Aktuální stav počasí

Zpráva byla vytvořena před 21 minutami, v 14:00 UTC
Jižní vítr 5 kt
Teplota 11°C
Vlhkost vzduchu 58%
Tlak 1026 hPa
Viditelnost 10 km a více
Žádná oblačnost pod 1500 m, nevyskytují se cumulonimby.

METAR: LBBG 251400Z 18005KT CAVOK 11/03 Q1026 NOSIG

Čas: 16:21 (14:21 UTC)

Předpověď počasí

Zpráva byla vytvořena před 3 hodinami a 21 minutami, v 11:00 UTC
Předpověď platná od 25 v 12 UTC do 26 v 12 UTC
Severní vítr 10 kt
Viditelnost 10 km a více
Žádná oblačnost pod 1500 m, nevyskytují se cumulonimby.
Změna
od 25 v 18 UTC do 25 v 20 UTC
vítr z různých směrů 4 kt

TAF: LBBG 251100Z 2512/2612 01010KT CAVOK BECMG 2518/2520 VRB04KT

Stav a předpovědi počasí z více než 4 000 letišť (zprávy METAR a TAF).

Červené a žluté tečky na mapě představují dostupné meteorologické stanice.

Když kurzor umístíte na tečku, zobrazí se název stanice.

Pak kliknutím zobrazíte stav a předpověď počasí.

Chcete-li změnit mapu, kliknutím na zelené tlačítko se znaménkem +mapu přiblížíte, kliknutím na zelené tlačítko se znaménkem – mapu oddálíte a kliknutím na zelené šipky přejdete na sousední mapy.


METAR-TAF: